createdAt,value
2023-05-02T00:02:42.700Z,5.45
2023-05-02T00:07:45.318Z,2.95
2023-05-02T00:12:47.497Z,2.40
2023-05-02T00:17:49.768Z,4.32
2023-05-02T00:22:52.039Z,5.45
2023-05-02T00:27:54.897Z,3.10
2023-05-02T00:32:56.980Z,2.83
2023-05-02T00:37:59.926Z,4.93
2023-05-02T00:43:02.083Z,6.50
2023-05-02T00:48:04.393Z,7.82
2023-05-02T00:53:09.452Z,4.40
2023-05-02T00:58:15.128Z,5.35
2023-05-02T01:03:47.676Z,3.42
2023-05-02T01:09:08.572Z,3.25
2023-05-02T01:14:12.278Z,3.67
2023-05-02T01:19:32.860Z,6.43
2023-05-02T01:24:53.004Z,2.55
2023-05-02T01:29:58.780Z,8.68
2023-05-02T01:35:03.072Z,4.32
2023-05-02T01:40:08.487Z,5.35
2023-05-02T01:45:12.848Z,3.53
2023-05-02T01:50:18.876Z,5.85
2023-05-02T01:55:21.594Z,4.35
2023-05-02T02:00:25.835Z,3.17
2023-05-02T02:05:28.905Z,4.72
2023-05-02T02:10:37.737Z,7.15
2023-05-02T02:15:42.522Z,6.28
2023-05-02T02:20:47.249Z,3.20
2023-05-02T02:25:52.432Z,4.40
2023-05-02T02:30:54.516Z,5.10
2023-05-02T02:36:25.181Z,6.18
2023-05-02T02:41:42.817Z,9.07
2023-05-02T02:47:02.837Z,6.25
2023-05-02T02:52:15.708Z,6.05
2023-05-02T02:57:24.633Z,7.25
2023-05-02T03:02:31.244Z,3.28
2023-05-02T03:07:33.580Z,5.25
2023-05-02T03:12:37.599Z,5.28
2023-05-02T03:17:40.378Z,6.55
2023-05-02T03:22:42.460Z,5.82
2023-05-02T03:27:44.690Z,5.10
2023-05-02T03:32:47.774Z,8.00
2023-05-02T03:37:50.970Z,6.55
2023-05-02T03:42:53.085Z,5.57
2023-05-02T03:48:02.224Z,5.90
2023-05-02T03:53:05.672Z,6.95
2023-05-02T03:58:16.963Z,5.73
2023-05-02T04:03:21.581Z,5.47
2023-05-02T04:08:24.549Z,6.38
2023-05-02T04:13:26.700Z,7.35
2023-05-02T04:18:28.966Z,5.10
2023-05-02T04:23:31.097Z,4.57
2023-05-02T04:28:36.487Z,4.05
2023-05-02T04:33:39.442Z,6.25
2023-05-02T04:38:42.271Z,8.00
2023-05-02T04:43:45.171Z,5.53
2023-05-02T04:48:49.020Z,5.90
2023-05-02T04:53:51.276Z,8.55
2023-05-02T04:58:54.437Z,10.93
2023-05-02T05:03:57.347Z,7.82
2023-05-02T05:09:00.259Z,7.03
2023-05-02T05:14:04.357Z,7.85
2023-05-02T05:19:09.150Z,6.65
2023-05-02T05:24:11.337Z,11.63
2023-05-02T05:29:13.505Z,4.57
2023-05-02T05:34:18.220Z,6.10
2023-05-02T05:39:22.238Z,4.32
2023-05-02T05:44:27.330Z,4.97
2023-05-02T05:49:29.566Z,7.35
2023-05-02T05:54:31.851Z,3.97
2023-05-02T05:59:36.564Z,2.78
2023-05-02T06:04:40.544Z,6.95
2023-05-02T06:09:42.904Z,5.30
2023-05-02T06:14:45.058Z,3.10
2023-05-02T06:19:48.978Z,1.77
2023-05-02T06:24:51.150Z,4.28
2023-05-02T06:29:53.946Z,4.82
2023-05-02T06:34:56.137Z,1.58
2023-05-02T06:39:58.442Z,2.28
2023-05-02T06:45:00.888Z,3.28
2023-05-02T06:50:03.685Z,3.10
2023-05-02T06:55:06.442Z,3.08
2023-05-02T07:00:09.313Z,2.50
2023-05-02T07:05:11.614Z,4.30
2023-05-02T07:10:13.842Z,1.35
2023-05-02T07:15:17.142Z,2.92
2023-05-02T07:20:20.058Z,3.47
2023-05-02T07:25:22.110Z,4.53
2023-05-02T07:30:24.227Z,2.38
2023-05-02T07:35:26.446Z,5.03
2023-05-02T07:40:28.745Z,3.22
2023-05-02T07:45:30.937Z,2.42
2023-05-02T07:50:33.051Z,4.35
2023-05-02T07:55:35.203Z,2.13
2023-05-02T08:00:37.303Z,6.00
2023-05-02T08:05:39.305Z,1.58
2023-05-02T08:10:42.431Z,4.38
2023-05-02T08:15:44.812Z,3.45
2023-05-02T08:20:48.453Z,1.65
2023-05-02T08:25:50.676Z,1.85
2023-05-02T08:30:52.786Z,2.90
2023-05-02T08:35:54.980Z,1.17
2023-05-02T08:40:57.080Z,1.83
2023-05-02T08:46:00.467Z,1.05
2023-05-02T08:51:03.848Z,2.63
2023-05-02T08:56:10.434Z,1.23
2023-05-02T09:01:15.820Z,2.15
2023-05-02T09:06:19.791Z,2.10
2023-05-02T09:11:22.397Z,4.70
2023-05-02T09:16:27.305Z,3.03
2023-05-02T09:21:38.236Z,0.98
2023-05-02T09:26:40.598Z,2.97
2023-05-02T09:31:55.677Z,1.35
2023-05-02T09:36:58.903Z,0.88
2023-05-02T09:42:01.567Z,2.95
2023-05-02T09:47:03.861Z,0.85
2023-05-02T09:52:14.116Z,1.25
2023-05-02T09:57:16.600Z,1.17
2023-05-02T10:02:19.357Z,1.42
2023-05-02T10:07:21.699Z,2.58
2023-05-02T10:12:26.874Z,1.23
2023-05-02T10:17:32.342Z,0.80
2023-05-02T10:22:36.351Z,1.33
2023-05-02T10:27:38.621Z,2.47
2023-05-02T10:32:41.519Z,0.60
2023-05-02T10:37:45.608Z,2.13
2023-05-02T10:42:51.481Z,0.80
2023-05-02T10:48:13.548Z,3.13
2023-05-02T10:53:44.894Z,1.65
2023-05-02T10:58:51.423Z,0.85
2023-05-02T11:03:56.054Z,2.78
2023-05-02T11:09:30.906Z,2.22
2023-05-02T11:14:38.972Z,1.08
2023-05-02T11:19:43.733Z,2.28
2023-05-02T11:24:50.244Z,0.98
2023-05-02T11:29:53.817Z,0.93
2023-05-02T11:34:56.166Z,0.85
2023-05-02T11:40:11.989Z,1.60
2023-05-02T11:45:14.183Z,2.70
2023-05-02T11:50:17.028Z,1.38
2023-05-02T11:55:19.190Z,0.57
2023-05-02T12:00:27.717Z,1.25
2023-05-02T12:05:30.374Z,1.88
2023-05-02T12:10:38.966Z,1.55
2023-05-02T12:15:41.789Z,1.00
2023-05-02T12:20:45.265Z,0.85
2023-05-02T12:25:47.402Z,1.30
2023-05-02T12:30:51.370Z,2.25
2023-05-02T12:35:54.180Z,2.30
2023-05-02T12:40:59.240Z,2.72
2023-05-02T12:46:11.259Z,1.83
2023-05-02T12:51:28.729Z,1.17
2023-05-02T12:56:38.610Z,1.88
2023-05-02T13:01:41.530Z,2.00
2023-05-02T13:11:45.861Z,0.60
2023-05-02T13:16:49.432Z,5.05
2023-05-02T13:21:51.582Z,1.60
2023-05-02T13:26:53.601Z,2.08
2023-05-02T13:31:55.647Z,3.30
2023-05-02T13:36:57.840Z,1.77
2023-05-02T13:41:59.984Z,2.15
2023-05-02T13:47:02.073Z,3.15
2023-05-02T13:52:04.457Z,2.55
2023-05-02T13:57:06.620Z,4.80
2023-05-02T14:02:08.862Z,2.50
2023-05-02T14:07:11.446Z,3.20
2023-05-02T14:12:13.559Z,3.22
2023-05-02T14:17:15.674Z,3.10
2023-05-02T14:22:17.806Z,1.90
2023-05-02T14:27:19.939Z,3.30
2023-05-02T14:32:22.133Z,3.70
2023-05-02T14:37:24.294Z,3.22
2023-05-02T14:42:26.482Z,3.15
2023-05-02T14:47:31.273Z,5.20
2023-05-02T14:52:33.496Z,1.88
2023-05-02T14:57:35.740Z,2.80
2023-05-02T15:02:38.213Z,2.80
2023-05-02T15:07:40.337Z,3.20
2023-05-02T15:12:43.286Z,2.28
2023-05-02T15:17:45.360Z,7.75
2023-05-02T15:22:47.543Z,3.00
2023-05-02T15:27:50.332Z,3.53
2023-05-02T15:32:52.561Z,8.93
2023-05-02T15:37:55.594Z,2.00
2023-05-02T15:42:57.735Z,2.47
2023-05-02T15:48:00.025Z,7.93
2023-05-02T15:53:02.194Z,5.32
2023-05-02T15:58:04.421Z,3.97
2023-05-02T16:03:06.761Z,6.88
2023-05-02T16:08:09.015Z,4.38
2023-05-02T16:13:11.192Z,5.53
2023-05-02T16:18:13.308Z,3.53
2023-05-02T16:23:15.394Z,4.70
2023-05-02T16:28:17.596Z,5.15
2023-05-02T16:33:21.570Z,5.53
2023-05-02T16:38:23.748Z,2.72
2023-05-02T16:48:27.822Z,4.68
2023-05-02T16:53:31.072Z,5.45
2023-05-02T16:58:33.240Z,3.80
2023-05-02T17:03:35.534Z,5.20
2023-05-02T17:08:38.229Z,2.58
2023-05-02T17:13:40.376Z,2.72
2023-05-02T17:23:44.462Z,9.35
2023-05-02T17:28:46.525Z,5.50
2023-05-02T17:38:50.399Z,3.80
2023-05-02T17:48:54.483Z,2.95
2023-05-02T17:59:00.532Z,4.70
2023-05-02T18:04:04.250Z,5.22
2023-05-02T18:09:07.387Z,5.43
2023-05-02T18:14:15.059Z,7.82
2023-05-02T18:19:17.571Z,2.80
2023-05-02T18:24:19.591Z,4.03
2023-05-02T18:29:21.751Z,4.57
2023-05-02T18:39:25.951Z,2.80
2023-05-02T18:44:28.066Z,8.13
2023-05-02T18:49:30.165Z,7.45
2023-05-02T18:59:35.559Z,9.70
2023-05-02T19:09:40.420Z,8.73
2023-05-02T19:14:42.616Z,16.08
2023-05-02T19:19:48.083Z,6.43
2023-05-02T19:24:50.939Z,9.88
2023-05-02T19:29:54.391Z,10.30
2023-05-02T19:34:56.964Z,13.25
2023-05-02T19:39:59.437Z,10.45
2023-05-02T19:45:01.916Z,14.30
2023-05-02T19:50:06.733Z,15.30
2023-05-02T19:55:09.560Z,9.82
2023-05-02T20:00:13.018Z,10.88
2023-05-02T20:05:15.388Z,12.85
2023-05-02T20:10:18.490Z,12.63
2023-05-02T20:15:22.172Z,11.07
2023-05-02T20:20:25.132Z,12.23
2023-05-02T20:25:27.299Z,11.95
2023-05-02T20:30:29.402Z,11.35
2023-05-02T20:35:31.682Z,12.38
2023-05-02T20:40:34.106Z,11.82
2023-05-02T20:45:36.288Z,10.60
2023-05-02T20:55:40.232Z,10.00
2023-05-02T21:05:44.364Z,14.95
2023-05-02T21:15:48.474Z,6.32
2023-05-02T21:20:50.734Z,6.07
2023-05-02T21:25:52.868Z,10.35
2023-05-02T21:35:57.698Z,4.63
2023-05-02T21:41:04.772Z,7.78
2023-05-02T21:46:07.019Z,6.90
2023-05-02T21:51:11.474Z,5.03
2023-05-02T21:56:13.464Z,4.70
2023-05-02T22:06:18.278Z,4.93
2023-05-02T22:16:24.116Z,4.53
2023-05-02T22:21:27.318Z,14.35
2023-05-02T22:26:29.468Z,10.45
2023-05-02T22:31:31.879Z,7.50
2023-05-02T22:36:35.664Z,5.85
2023-05-02T22:41:39.298Z,4.43
2023-05-02T22:46:41.515Z,7.55
2023-05-02T22:51:45.266Z,6.35
2023-05-02T22:56:47.402Z,7.15
2023-05-02T23:01:50.825Z,5.72
2023-05-02T23:06:52.936Z,5.53
2023-05-02T23:11:55.087Z,4.60
2023-05-02T23:16:57.517Z,3.92
2023-05-02T23:22:00.020Z,5.95
2023-05-02T23:27:02.186Z,5.05
2023-05-02T23:37:07.065Z,7.07
2023-05-02T23:42:09.099Z,4.47
2023-05-02T23:52:13.246Z,5.10
2023-05-02T23:57:15.541Z,5.28
